createdAt,value
2018-08-06T00:00:28.035Z,4.07
2018-08-06T00:02:56.496Z,5.10
2018-08-06T00:05:25.220Z,4.87
2018-08-06T00:07:54.256Z,4.33
2018-08-06T00:10:24.754Z,4.42
2018-08-06T00:12:53.701Z,4.23
2018-08-06T00:15:22.433Z,4.53
2018-08-06T00:17:51.180Z,4.50
2018-08-06T00:20:20.164Z,4.53
2018-08-06T00:22:49.111Z,4.60
2018-08-06T00:25:18.284Z,4.07
2018-08-06T00:27:46.931Z,4.17
2018-08-06T00:30:17.483Z,4.60
2018-08-06T00:32:46.946Z,4.53
2018-08-06T00:35:16.115Z,4.80
2018-08-06T00:37:44.662Z,4.43
2018-08-06T00:40:18.098Z,4.83
2018-08-06T00:42:47.044Z,4.70
2018-08-06T00:45:17.650Z,4.77
2018-08-06T00:47:47.422Z,4.37
2018-08-06T00:50:16.154Z,4.90
2018-08-06T00:52:44.604Z,5.10
2018-08-06T00:55:15.621Z,5.00
2018-08-06T00:57:44.412Z,4.78
2018-08-06T01:00:14.743Z,5.22
2018-08-06T01:02:43.277Z,5.07
2018-08-06T01:05:13.318Z,4.83
2018-08-06T01:07:42.944Z,5.20
2018-08-06T01:10:13.482Z,5.00
2018-08-06T01:12:42.651Z,5.23
2018-08-06T01:15:15.836Z,5.00
2018-08-06T01:17:44.714Z,4.80
2018-08-06T01:20:13.934Z,5.53
2018-08-06T01:22:43.425Z,4.70
2018-08-06T01:25:12.343Z,5.00
2018-08-06T01:27:41.020Z,4.60
2018-08-06T01:30:11.471Z,5.27
2018-08-06T01:32:40.201Z,4.57
2018-08-06T01:35:10.010Z,4.70
2018-08-06T01:37:39.006Z,4.87
2018-08-06T01:40:10.254Z,5.00
2018-08-06T01:42:38.960Z,5.30
2018-08-06T01:45:08.154Z,5.60
2018-08-06T01:47:38.298Z,5.07
2018-08-06T01:50:07.880Z,4.93
2018-08-06T01:52:36.733Z,5.03
2018-08-06T01:55:05.630Z,5.13
2018-08-06T01:57:34.338Z,5.43
2018-08-06T02:00:04.286Z,5.20
2018-08-06T02:02:33.090Z,5.73
2018-08-06T02:05:02.201Z,5.80
2018-08-06T02:07:30.923Z,5.37
2018-08-06T02:09:59.388Z,4.93
2018-08-06T02:12:28.455Z,4.90
2018-08-06T02:14:57.278Z,5.30
2018-08-06T02:17:25.752Z,5.60
2018-08-06T02:19:54.479Z,5.10
2018-08-06T02:22:23.823Z,5.12
2018-08-06T02:24:52.707Z,5.42
2018-08-06T02:27:21.433Z,5.17
2018-08-06T02:29:50.419Z,5.50
2018-08-06T02:32:19.435Z,5.62
2018-08-06T02:34:48.446Z,5.58
2018-08-06T02:37:16.955Z,5.53
2018-08-06T02:39:45.405Z,5.20
2018-08-06T02:42:14.281Z,5.67
2018-08-06T02:44:42.783Z,5.73
2018-08-06T02:47:11.562Z,5.37
2018-08-06T02:49:40.611Z,4.60
2018-08-06T02:52:09.326Z,5.10
2018-08-06T02:54:38.705Z,5.55
2018-08-06T02:57:07.423Z,5.27
2018-08-06T02:59:36.447Z,5.83
2018-08-06T03:02:05.430Z,5.42
2018-08-06T03:04:34.500Z,5.55
2018-08-06T03:07:03.519Z,5.17
2018-08-06T03:09:31.976Z,5.83
2018-08-06T03:12:00.671Z,5.17
2018-08-06T03:14:29.361Z,5.33
2018-08-06T03:16:57.906Z,5.08
2018-08-06T03:19:26.818Z,5.40
2018-08-06T03:21:55.510Z,6.30
2018-08-06T03:24:24.516Z,6.00
2018-08-06T03:26:53.002Z,6.03
2018-08-06T03:29:21.514Z,5.73
2018-08-06T03:31:50.029Z,5.97
2018-08-06T03:34:18.641Z,6.50
2018-08-06T03:36:47.432Z,5.83
2018-08-06T03:39:15.871Z,6.13
2018-08-06T03:41:44.591Z,5.90
2018-08-06T03:44:13.571Z,5.97
2018-08-06T03:46:42.579Z,6.47
2018-08-06T03:49:10.981Z,6.30
2018-08-06T03:51:39.700Z,6.07
2018-08-06T03:54:08.391Z,7.43
2018-08-06T03:56:36.835Z,6.33
2018-08-06T03:59:05.552Z,6.50
2018-08-06T04:01:34.554Z,6.12
2018-08-06T04:04:03.658Z,8.30
2018-08-06T04:06:32.097Z,7.50
2018-08-06T04:09:00.809Z,6.63
2018-08-06T04:11:29.465Z,6.97
2018-08-06T04:13:57.906Z,6.30
2018-08-06T04:16:34.630Z,7.33
2018-08-06T04:19:03.240Z,5.83
2018-08-06T04:21:31.704Z,6.20
2018-08-06T04:23:59.886Z,6.33
2018-08-06T04:26:28.402Z,6.43
2018-08-06T04:28:56.826Z,6.67
2018-08-06T04:31:25.494Z,6.77
2018-08-06T04:33:53.967Z,6.33
2018-08-06T04:36:22.632Z,6.60
2018-08-06T04:38:51.111Z,6.70
2018-08-06T04:41:19.741Z,7.00
2018-08-06T04:43:48.663Z,7.08
2018-08-06T04:46:17.116Z,6.90
2018-08-06T04:48:45.559Z,6.73
2018-08-06T04:51:14.590Z,6.70
2018-08-06T04:53:43.229Z,7.03
2018-08-06T04:56:11.975Z,6.90
2018-08-06T04:58:40.391Z,6.83
2018-08-06T05:01:09.458Z,6.75
2018-08-06T05:03:38.742Z,7.00
2018-08-06T05:06:07.177Z,7.40
2018-08-06T05:08:35.773Z,7.37
2018-08-06T05:11:04.502Z,7.30
2018-08-06T05:13:33.277Z,7.10
2018-08-06T05:16:02.470Z,7.63
2018-08-06T05:18:31.215Z,7.50
2018-08-06T05:21:00.150Z,7.37
2018-08-06T05:24:00.910Z,7.10
2018-08-06T05:26:30.395Z,7.90
2018-08-06T05:28:58.850Z,7.70
2018-08-06T05:31:28.459Z,7.40
2018-08-06T05:33:57.747Z,9.15
2018-08-06T05:36:26.992Z,8.33
2018-08-06T05:38:56.245Z,8.13
2018-08-06T05:41:26.164Z,8.07
2018-08-06T05:43:55.835Z,7.83
2018-08-06T05:46:24.975Z,8.80
2018-08-06T05:48:53.915Z,9.18
2018-08-06T05:51:23.001Z,8.47
2018-08-06T05:53:52.073Z,8.80
2018-08-06T05:56:20.899Z,8.87
2018-08-06T05:58:49.907Z,9.23
2018-08-06T06:01:18.902Z,9.40
2018-08-06T06:03:47.633Z,9.23
2018-08-06T06:06:16.455Z,10.03
2018-08-06T06:08:45.694Z,9.50
2018-08-06T06:11:14.706Z,9.93
2018-08-06T06:13:43.222Z,9.63
2018-08-06T06:16:12.053Z,9.80
2018-08-06T06:18:40.934Z,9.80
2018-08-06T06:21:09.726Z,9.77
2018-08-06T06:23:38.866Z,8.70
2018-08-06T06:26:07.914Z,9.78
2018-08-06T06:28:36.745Z,10.20
2018-08-06T06:31:05.863Z,9.10
2018-08-06T06:33:34.912Z,10.88
2018-08-06T06:36:03.886Z,10.80
2018-08-06T06:38:32.892Z,11.80
2018-08-06T06:41:01.964Z,11.05
2018-08-06T06:43:30.449Z,11.13
2018-08-06T06:45:59.181Z,11.83
2018-08-06T06:48:28.043Z,12.73
2018-08-06T06:50:56.798Z,11.63
2018-08-06T06:53:25.292Z,11.57
2018-08-06T06:55:54.019Z,11.63
2018-08-06T06:58:22.754Z,12.53
2018-08-06T07:00:51.223Z,12.10
2018-08-06T07:03:20.070Z,12.57
2018-08-06T07:05:48.971Z,11.60
2018-08-06T07:08:18.080Z,11.38
2018-08-06T07:10:46.814Z,12.23
2018-08-06T07:13:15.998Z,12.58
2018-08-06T07:15:44.874Z,12.30
2018-08-06T07:18:13.966Z,12.40
2018-08-06T07:20:42.978Z,12.25
2018-08-06T07:23:12.000Z,12.75
2018-08-06T07:25:41.038Z,12.18
2018-08-06T07:28:09.489Z,12.10
2018-08-06T07:30:38.803Z,12.98
2018-08-06T07:33:07.903Z,13.70
2018-08-06T07:35:36.931Z,12.85
2018-08-06T07:38:05.894Z,13.35
2018-08-06T07:40:34.971Z,13.22
2018-08-06T07:43:04.023Z,12.30
2018-08-06T07:45:33.045Z,12.87
2018-08-06T07:48:02.102Z,12.90
2018-08-06T07:50:30.947Z,12.97
2018-08-06T07:52:59.974Z,13.05
2018-08-06T07:55:29.014Z,12.33
2018-08-06T07:57:57.745Z,13.57
2018-08-06T08:00:26.606Z,13.07
2018-08-06T08:02:55.166Z,13.33
2018-08-06T08:05:23.904Z,13.20
2018-08-06T08:07:52.864Z,15.90
2018-08-06T08:10:22.859Z,15.90
2018-08-06T08:12:51.301Z,12.17
2018-08-06T08:15:21.837Z,12.57
2018-08-06T08:17:50.855Z,12.00
2018-08-06T08:20:19.760Z,11.40
2018-08-06T08:22:48.597Z,13.50
2018-08-06T08:25:19.272Z,13.67
2018-08-06T08:27:47.993Z,13.93
2018-08-06T08:30:17.669Z,13.00
2018-08-06T08:32:46.755Z,13.57
2018-08-06T08:35:15.978Z,12.37
2018-08-06T08:37:45.164Z,12.43
2018-08-06T08:40:14.944Z,12.63
2018-08-06T08:42:43.519Z,12.17
2018-08-06T08:45:13.980Z,14.30
2018-08-06T08:47:43.888Z,12.65
2018-08-06T08:50:15.322Z,13.27
2018-08-06T08:52:44.233Z,13.97
2018-08-06T08:55:14.467Z,12.63
2018-08-06T08:57:43.648Z,13.27
2018-08-06T09:00:14.891Z,13.10
2018-08-06T09:02:44.822Z,13.33
2018-08-06T09:05:13.918Z,14.20
2018-08-06T09:07:42.602Z,12.00
2018-08-06T09:10:12.598Z,13.33
2018-08-06T09:12:41.775Z,12.40
2018-08-06T09:15:11.272Z,12.37
2018-08-06T09:17:40.051Z,11.73
2018-08-06T09:20:09.169Z,11.80
2018-08-06T09:22:39.876Z,11.83
2018-08-06T09:25:09.410Z,11.30
2018-08-06T09:27:40.567Z,11.70
2018-08-06T09:30:12.511Z,11.17
2018-08-06T09:32:42.121Z,10.30
2018-08-06T09:35:11.183Z,10.15
2018-08-06T09:37:40.735Z,10.57
2018-08-06T09:40:12.357Z,10.07
2018-08-06T09:42:41.877Z,10.80
2018-08-06T09:45:14.687Z,11.33
2018-08-06T09:47:44.673Z,10.67
2018-08-06T09:50:14.056Z,9.83
2018-08-06T09:52:43.413Z,10.43
2018-08-06T09:55:15.240Z,10.03
2018-08-06T09:57:45.239Z,10.13
2018-08-06T10:00:20.918Z,10.30
2018-08-06T10:02:50.479Z,9.73
2018-08-06T10:05:20.519Z,10.67
2018-08-06T10:07:49.242Z,9.25
2018-08-06T10:10:18.289Z,10.00
2018-08-06T10:12:47.567Z,9.03
2018-08-06T10:15:16.508Z,10.53
2018-08-06T10:17:46.096Z,10.55
2018-08-06T10:20:17.210Z,9.70
2018-08-06T10:22:45.682Z,10.53
2018-08-06T10:25:15.188Z,9.97
2018-08-06T10:27:44.380Z,8.63
2018-08-06T10:30:22.122Z,8.03
2018-08-06T10:32:50.979Z,7.40
2018-08-06T10:35:20.385Z,7.57
2018-08-06T10:37:49.265Z,5.23
2018-08-06T10:40:20.504Z,5.03
2018-08-06T10:42:49.471Z,5.75
2018-08-06T10:45:19.304Z,4.10
2018-08-06T10:47:48.614Z,4.30
2018-08-06T10:50:17.360Z,4.70
2018-08-06T10:52:46.151Z,5.30
2018-08-06T10:55:14.859Z,5.40
2018-08-06T10:57:44.323Z,5.70
2018-08-06T11:00:16.987Z,6.47
2018-08-06T11:02:45.554Z,6.10
2018-08-06T11:05:15.213Z,6.40
2018-08-06T11:07:43.695Z,6.07
2018-08-06T11:10:19.905Z,7.80
2018-08-06T11:12:48.612Z,7.57
2018-08-06T11:15:20.718Z,6.67
2018-08-06T11:17:49.818Z,6.83
2018-08-06T11:20:19.263Z,7.40
2018-08-06T11:22:48.409Z,7.42
2018-08-06T11:25:19.087Z,7.47
2018-08-06T11:27:47.950Z,7.77
2018-08-06T11:30:18.545Z,7.37
2018-08-06T11:32:48.157Z,7.03
2018-08-06T11:35:17.218Z,6.93
2018-08-06T11:37:45.703Z,6.90
2018-08-06T11:40:15.347Z,6.37
2018-08-06T11:42:44.822Z,6.60
2018-08-06T11:45:15.575Z,7.00
2018-08-06T11:47:44.304Z,6.70
2018-08-06T11:50:13.152Z,7.30
2018-08-06T11:52:41.806Z,6.90
2018-08-06T11:55:10.987Z,6.80
2018-08-06T11:57:39.810Z,6.97
2018-08-06T12:00:18.501Z,6.70
2018-08-06T12:02:47.292Z,6.80
2018-08-06T12:05:16.496Z,6.35
2018-08-06T12:07:45.201Z,6.75
2018-08-06T12:10:15.711Z,6.97
2018-08-06T12:12:45.313Z,5.83
2018-08-06T12:15:14.120Z,6.13
2018-08-06T12:17:43.427Z,6.93
2018-08-06T12:20:15.016Z,6.45
2018-08-06T12:22:44.868Z,6.07
2018-08-06T12:25:14.482Z,6.10
2018-08-06T12:27:44.094Z,6.55
2018-08-06T12:30:13.885Z,6.80
2018-08-06T12:32:43.402Z,6.00
2018-08-06T12:35:12.573Z,6.45
2018-08-06T12:37:41.337Z,6.60
2018-08-06T12:40:14.163Z,6.20
2018-08-06T12:42:43.060Z,6.40
2018-08-06T12:45:12.826Z,6.23
2018-08-06T12:47:41.837Z,6.07
2018-08-06T12:50:11.625Z,6.63
2018-08-06T12:52:41.292Z,6.43
2018-08-06T12:55:11.545Z,6.50
2018-08-06T12:57:40.866Z,6.83
2018-08-06T13:00:16.460Z,6.57
2018-08-06T13:02:46.254Z,6.37
2018-08-06T13:05:14.983Z,5.83
2018-08-06T13:07:43.796Z,6.17
2018-08-06T13:10:12.784Z,6.20
2018-08-06T13:12:41.512Z,5.90
2018-08-06T13:15:11.828Z,6.30
2018-08-06T13:17:41.009Z,5.87
2018-08-06T13:20:09.976Z,6.33
2018-08-06T13:22:39.626Z,6.12
2018-08-06T13:25:10.085Z,6.37
2018-08-06T13:27:39.632Z,5.67
2018-08-06T13:30:10.941Z,6.00
2018-08-06T13:32:39.886Z,5.67
2018-08-06T13:35:08.640Z,6.10
2018-08-06T13:37:37.485Z,6.17
2018-08-06T13:40:07.149Z,5.60
2018-08-06T13:42:35.876Z,6.63
2018-08-06T13:45:06.136Z,5.77
2018-08-06T13:47:34.946Z,5.73
2018-08-06T13:50:03.746Z,6.00
2018-08-06T13:52:32.524Z,5.33
2018-08-06T13:55:01.504Z,5.87
2018-08-06T13:57:30.535Z,5.75
2018-08-06T13:59:59.557Z,5.42
2018-08-06T14:02:28.739Z,5.35
2018-08-06T14:04:57.570Z,5.83
2018-08-06T14:07:26.590Z,5.85
2018-08-06T14:09:55.696Z,5.28
2018-08-06T14:12:24.384Z,6.87
2018-08-06T14:14:53.107Z,6.43
2018-08-06T14:17:21.847Z,5.50
2018-08-06T14:19:50.661Z,5.60
2018-08-06T14:22:19.421Z,5.33
2018-08-06T14:24:47.894Z,5.53
2018-08-06T14:27:16.648Z,5.90
2018-08-06T14:29:45.781Z,5.95
2018-08-06T14:32:14.530Z,5.90
2018-08-06T14:34:43.595Z,5.60
2018-08-06T14:37:12.573Z,5.20
2018-08-06T14:39:41.704Z,5.15
2018-08-06T14:42:10.436Z,4.93
2018-08-06T14:44:39.784Z,5.08
2018-08-06T14:47:08.467Z,5.30
2018-08-06T14:49:37.228Z,5.37
2018-08-06T14:52:05.946Z,5.00
2018-08-06T14:54:34.897Z,5.23
2018-08-06T14:57:03.633Z,5.30
2018-08-06T14:59:32.420Z,4.90
2018-08-06T15:02:01.658Z,5.35
2018-08-06T15:04:30.755Z,4.95
2018-08-06T15:06:59.555Z,5.30
2018-08-06T15:09:28.386Z,5.00
2018-08-06T15:11:57.127Z,5.13
2018-08-06T15:14:25.843Z,4.83
2018-08-06T15:16:54.595Z,4.90
2018-08-06T15:19:23.531Z,5.10
2018-08-06T15:21:52.228Z,5.27
2018-08-06T15:24:20.984Z,5.57
2018-08-06T15:26:49.390Z,5.35
2018-08-06T15:29:18.476Z,5.10
2018-08-06T15:31:47.331Z,5.00
2018-08-06T15:34:16.262Z,5.33
2018-08-06T15:36:44.925Z,5.07
2018-08-06T15:39:14.888Z,4.40
2018-08-06T15:41:44.414Z,5.57
2018-08-06T15:44:13.212Z,5.20
2018-08-06T15:46:41.950Z,5.20
2018-08-06T15:49:10.723Z,5.00
2018-08-06T15:51:39.828Z,6.08
2018-08-06T15:54:09.128Z,5.20
2018-08-06T15:56:37.863Z,4.70
2018-08-06T15:59:06.555Z,5.47
2018-08-06T16:01:35.670Z,5.10
2018-08-06T16:04:04.523Z,5.20
2018-08-06T16:06:33.355Z,4.70
2018-08-06T16:09:02.140Z,4.90
2018-08-06T16:11:30.860Z,5.17
2018-08-06T16:13:59.572Z,5.70
2018-08-06T16:16:28.330Z,4.83
2018-08-06T16:18:57.236Z,4.83
2018-08-06T16:21:26.019Z,11.40
2018-08-06T16:23:54.766Z,5.30
2018-08-06T16:26:23.913Z,5.08
2018-08-06T16:28:52.522Z,4.97
2018-08-06T16:31:21.498Z,5.20
2018-08-06T16:33:50.268Z,4.90
2018-08-06T16:36:19.264Z,5.13
2018-08-06T16:38:48.677Z,4.90
2018-08-06T16:41:17.447Z,4.77
2018-08-06T16:43:46.055Z,4.50
2018-08-06T16:46:14.902Z,4.77
2018-08-06T16:48:43.901Z,4.28
2018-08-06T16:51:12.892Z,4.58
2018-08-06T16:53:41.663Z,4.13
2018-08-06T16:56:10.327Z,4.83
2018-08-06T16:58:40.116Z,4.80
2018-08-06T17:01:09.035Z,4.80
2018-08-06T17:03:37.858Z,4.70
2018-08-06T17:06:07.035Z,4.87
2018-08-06T17:08:35.837Z,4.10
2018-08-06T17:11:04.968Z,4.10
2018-08-06T17:13:34.049Z,4.85
2018-08-06T17:16:02.831Z,4.67
2018-08-06T17:18:31.900Z,4.65
2018-08-06T17:21:00.878Z,5.83
2018-08-06T17:23:29.910Z,5.05
2018-08-06T17:25:58.412Z,5.00
2018-08-06T17:28:27.115Z,5.03
2018-08-06T17:30:56.411Z,5.22
2018-08-06T17:33:25.475Z,5.00
2018-08-06T17:35:55.099Z,4.33
2018-08-06T17:38:24.013Z,4.10
2018-08-06T17:40:52.755Z,5.03
2018-08-06T17:43:21.793Z,4.72
2018-08-06T17:45:50.319Z,4.33
2018-08-06T17:48:19.072Z,4.33
2018-08-06T17:50:47.574Z,4.22
2018-08-06T17:53:16.320Z,4.20
2018-08-06T17:55:45.421Z,4.20
2018-08-06T17:58:14.226Z,4.57
2018-08-06T18:00:42.913Z,4.20
2018-08-06T18:03:11.953Z,4.40
2018-08-06T18:05:40.481Z,4.37
2018-08-06T18:08:09.264Z,4.63
2018-08-06T18:10:37.993Z,4.27
2018-08-06T18:13:07.244Z,4.50
2018-08-06T18:15:36.007Z,4.30
2018-08-06T18:18:05.871Z,4.50
2018-08-06T18:20:34.591Z,4.40
2018-08-06T18:23:03.317Z,4.30
2018-08-06T18:25:32.015Z,4.23
2018-08-06T18:28:01.039Z,4.83
2018-08-06T18:30:30.057Z,4.78
2018-08-06T18:32:58.827Z,13.03
2018-08-06T18:35:27.563Z,7.53
2018-08-06T18:37:56.243Z,5.87
2018-08-06T18:40:24.949Z,4.87
2018-08-06T18:42:53.674Z,5.20
2018-08-06T18:45:22.670Z,6.10
2018-08-06T18:47:52.121Z,5.33
2018-08-06T18:50:21.250Z,4.93
2018-08-06T18:52:50.511Z,5.05
2018-08-06T18:55:19.481Z,5.00
2018-08-06T18:57:48.336Z,5.17
2018-08-06T19:00:19.433Z,4.90
2018-08-06T19:02:48.587Z,5.45
2018-08-06T19:05:17.328Z,5.33
2018-08-06T19:07:46.278Z,5.05
2018-08-06T19:10:14.992Z,5.97
2018-08-06T19:12:49.200Z,6.37
2018-08-06T19:15:18.260Z,5.17
2018-08-06T19:17:52.447Z,5.93
2018-08-06T19:20:21.223Z,4.80
2018-08-06T19:22:49.951Z,4.75
2018-08-06T19:25:24.067Z,4.87
2018-08-06T19:27:52.554Z,4.57
2018-08-06T19:30:21.533Z,4.70
2018-08-06T19:32:50.413Z,5.47
2018-08-06T19:35:19.151Z,12.27
2018-08-06T19:37:49.743Z,6.12
2018-08-06T19:40:18.549Z,5.80
2018-08-06T19:42:52.705Z,5.53
2018-08-06T19:45:21.604Z,4.93
2018-08-06T19:47:50.333Z,4.93
2018-08-06T19:50:24.590Z,5.80
2018-08-06T19:52:53.466Z,4.43
2018-08-06T19:55:28.355Z,5.17
2018-08-06T19:57:57.097Z,5.07
2018-08-06T20:00:26.105Z,5.50
2018-08-06T20:02:54.886Z,9.70
2018-08-06T20:05:23.786Z,5.93
2018-08-06T20:07:52.392Z,9.27
2018-08-06T20:10:21.189Z,10.33
2018-08-06T20:12:50.079Z,13.50
2018-08-06T20:15:20.160Z,7.25
2018-08-06T20:17:49.379Z,10.33
2018-08-06T20:20:18.275Z,6.70
2018-08-06T20:22:46.931Z,7.57
2018-08-06T20:25:17.863Z,8.50
2018-08-06T20:27:47.550Z,8.48
2018-08-06T20:30:17.918Z,6.13
2018-08-06T20:32:46.572Z,5.97
2018-08-06T20:35:16.365Z,5.47
2018-08-06T20:37:45.131Z,5.13
2018-08-06T20:40:15.546Z,5.80
2018-08-06T20:42:45.767Z,10.13
2018-08-06T20:45:16.724Z,7.93
2018-08-06T20:47:45.740Z,7.17
2018-08-06T20:50:18.111Z,7.10
2018-08-06T20:52:47.612Z,7.70
2018-08-06T20:55:16.684Z,7.47
2018-08-06T20:57:46.627Z,7.00
2018-08-06T21:00:19.471Z,6.20
2018-08-06T21:02:49.042Z,6.00
2018-08-06T21:05:18.409Z,5.58
2018-08-06T21:07:47.504Z,4.83
2018-08-06T21:10:17.041Z,6.17
2018-08-06T21:12:46.469Z,6.07
2018-08-06T21:15:15.834Z,5.60
2018-08-06T21:17:44.693Z,5.87
2018-08-06T21:20:15.687Z,6.47
2018-08-06T21:22:45.914Z,5.50
2018-08-06T21:25:14.864Z,5.03
2018-08-06T21:27:44.795Z,6.80
2018-08-06T21:30:16.221Z,5.57
2018-08-06T21:32:48.415Z,5.47
2018-08-06T21:35:18.088Z,6.10
2018-08-06T21:37:47.745Z,6.03
2018-08-06T21:40:16.879Z,6.00
2018-08-06T21:42:45.963Z,5.40
2018-08-06T21:45:14.715Z,6.17
2018-08-06T21:47:43.531Z,6.03
2018-08-06T21:50:12.921Z,6.53
2018-08-06T21:52:41.727Z,6.13
2018-08-06T21:55:10.936Z,6.00
2018-08-06T21:57:40.489Z,6.62
2018-08-06T22:00:23.185Z,6.43
2018-08-06T22:02:51.890Z,6.13
2018-08-06T22:05:20.676Z,6.60
2018-08-06T22:07:49.393Z,6.70
2018-08-06T22:10:18.200Z,6.77
2018-08-06T22:12:46.639Z,6.23
2018-08-06T22:15:15.415Z,6.97
2018-08-06T22:17:44.385Z,6.42
2018-08-06T22:20:13.425Z,6.58
2018-08-06T22:22:42.570Z,6.30
2018-08-06T22:25:11.306Z,6.60
2018-08-06T22:27:40.468Z,6.60
2018-08-06T22:30:10.346Z,6.20
2018-08-06T22:32:40.360Z,6.37
2018-08-06T22:35:11.562Z,7.22
2018-08-06T22:37:41.656Z,6.43
2018-08-06T22:40:12.023Z,5.70
2018-08-06T22:42:41.092Z,6.00
2018-08-06T22:45:11.240Z,6.17
2018-08-06T22:47:41.511Z,5.75
2018-08-06T22:50:11.845Z,5.80
2018-08-06T22:52:40.814Z,5.57
2018-08-06T22:55:10.883Z,6.87
2018-08-06T22:57:40.758Z,6.17
2018-08-06T23:00:11.361Z,5.83
2018-08-06T23:02:41.174Z,5.92
2018-08-06T23:05:10.755Z,5.67
2018-08-06T23:07:40.704Z,5.90
2018-08-06T23:10:11.702Z,6.23
2018-08-06T23:12:40.803Z,5.83
2018-08-06T23:15:11.924Z,6.30
2018-08-06T23:17:40.979Z,6.40
2018-08-06T23:20:09.983Z,6.63
2018-08-06T23:22:39.162Z,6.23
2018-08-06T23:25:08.389Z,5.67
2018-08-06T23:27:38.263Z,6.03
2018-08-06T23:30:10.175Z,6.40
2018-08-06T23:32:39.943Z,6.20
2018-08-06T23:35:10.311Z,5.43
2018-08-06T23:37:41.083Z,5.60
2018-08-06T23:40:10.702Z,6.37
2018-08-06T23:42:41.026Z,6.12
2018-08-06T23:45:11.055Z,5.80
2018-08-06T23:47:41.030Z,5.42
2018-08-06T23:50:11.508Z,5.97
2018-08-06T23:52:42.330Z,5.87
2018-08-06T23:55:12.550Z,5.93
2018-08-06T23:57:41.126Z,5.60
